Tug Hawk — WCS9768 — position and weather

sailwx.info

Track history (hours):
 
Tides and Currents Weather Stations Pressure Air Temp Water Temp Dewpoint Dewpoint Depression Visibility Wind Speed Wind Dir Waves Ship Positions

Tug Hawk

Owner: Seabulk Towing, Inc., FORT LAUDERDALE, FL. More information available from US FCC via Universal Licensing System and Coast Guard Vessel Documentation Center.

Last reported at 2018-Jan-12 14:59 UTC. Time now 2018-Feb-22 22:56 UTC.
Position N 26°05' W 080°07'.
Warning: this ship's position is 41 days out of date.

Length 32 m; draft 5 m.

Type: Tug. MMSI: 366943250.

Date/timePositionNaut miles runAvg speedWind from/ knotsBaromVisibWave heightAir tempDewpointWater temp
2018-Jan-12 14:59N 26°05' W 080°07'0 0.0
2018-Jan-12 14:30N 26°05' W 080°07'0 0.0
2018-Jan-12 14:00N 26°05' W 080°07'0 0.0
2018-Jan-12 13:29N 26°05' W 080°07'0 0.0
2018-Jan-12 13:00N 26°05' W 080°07'0 0.0
2018-Jan-12 12:30N 26°05' W 080°07'0 0.0
2018-Jan-12 12:00N 26°05' W 080°07'0 0.0
2018-Jan-12 11:30N 26°05' W 080°07'0 0.0
2018-Jan-12 10:59N 26°05' W 080°07'0 0.0
2018-Jan-12 10:30N 26°05' W 080°07'0 0.0
2018-Jan-12 10:00N 26°05' W 080°07'0 0.0
2018-Jan-12 09:30N 26°05' W 080°07'0 0.0
2018-Jan-12 09:00N 26°05' W 080°07'0 0.0
2018-Jan-12 08:30N 26°05' W 080°07'0 0.0
2018-Jan-12 08:00N 26°05' W 080°07'0 0.0
2018-Jan-12 07:30N 26°05' W 080°07'0 0.0
2018-Jan-12 07:00N 26°05' W 080°07'0 0.0
2018-Jan-12 06:30N 26°05' W 080°07'0 0.0
2018-Jan-12 05:59N 26°05' W 080°07'0 0.0
2018-Jan-12 05:30N 26°05' W 080°07'0 0.0
2018-Jan-12 05:00N 26°05' W 080°07'2 4.3
2018-Jan-12 04:30N 26°04' W 080°05'5 9.0
2018-Jan-12 04:00N 25°60' W 080°05'5 9.0
2018-Jan-12 03:30N 25°55' W 080°05'5 9.2
2018-Jan-12 03:00N 25°51' W 080°05'5 9.2
2018-Jan-12 02:30N 25°46' W 080°05'4 8.2
2018-Jan-12 02:00N 25°46' W 080°10'1 1.5
2018-Jan-12 01:30N 25°46' W 080°10'0 0.0
2018-Jan-12 01:01N 25°46' W 080°10'0 0.0
2018-Jan-12 00:30N 25°46' W 080°10'0 0.0
2018-Jan-12 00:00N 25°46' W 080°10'0 0.0
2018-Jan-11 23:30N 25°46' W 080°10'0 0.0
2018-Jan-11 23:00N 25°46' W 080°10'0 0.0
2018-Jan-11 22:30N 25°46' W 080°10'0 0.0
2018-Jan-11 22:00N 25°46' W 080°10'0 0.0
2018-Jan-11 21:30N 25°46' W 080°10'0 0.0
2018-Jan-11 21:00N 25°46' W 080°10'0 0.0
2018-Jan-11 20:30N 25°46' W 080°10'0 0.0
2018-Jan-11 20:00N 25°46' W 080°10'0 0.0
2018-Jan-11 19:30N 25°46' W 080°10'0 0.0
2018-Jan-11 19:00N 25°46' W 080°10'0 0.0
2018-Jan-11 18:30N 25°46' W 080°10'0 0.0
2018-Jan-11 17:59N 25°46' W 080°10'0 0.0
2018-Jan-11 17:30N 25°46' W 080°10'0 0.0
2018-Jan-11 17:00N 25°46' W 080°10'0 0.0
2018-Jan-11 16:30N 25°46' W 080°10'0 0.0
2018-Jan-11 16:00N 25°46' W 080°10'0 0.0
2018-Jan-11 15:30N 25°46' W 080°10'0 0.0
2018-Jan-11 15:00N 25°46' W 080°10'0 0.0
2018-Jan-11 14:30N 25°46' W 080°10'0 0.0
2018-Jan-11 14:00N 25°46' W 080°10'0 0.0
2018-Jan-11 13:30N 25°46' W 080°10'0 0.0
2018-Jan-11 13:00N 25°46' W 080°10'0 0.0
2018-Jan-11 12:30N 25°46' W 080°10'0 0.0
2018-Jan-11 12:00N 25°46' W 080°10'0 0.0
2018-Jan-11 11:30N 25°46' W 080°10'0 0.9
2018-Jan-11 11:00N 25°46' W 080°10'1 1.2
2018-Jan-11 10:31N 25°46' W 080°09'1 1.3
2018-Jan-11 10:00N 25°46' W 080°09'2 4.1
2018-Jan-11 09:30N 25°45' W 080°06'0 0.6
2018-Jan-11 09:00N 25°45' W 080°07'3 6.7
2018-Jan-11 08:30N 25°46' W 080°10'0 0.2
2018-Jan-11 08:00N 25°46' W 080°10'0 0.0
2018-Jan-11 07:30N 25°46' W 080°10'0 0.0
2018-Jan-11 07:00N 25°46' W 080°10'0 0.0
2018-Jan-11 06:30N 25°46' W 080°10'0 0.0
2018-Jan-11 06:00N 25°46' W 080°10'0 0.0
2018-Jan-11 05:30N 25°46' W 080°10'0 0.0
2018-Jan-11 05:00N 25°46' W 080°10'0 0.0
2018-Jan-11 04:30N 25°46' W 080°10'0 0.0
2018-Jan-11 04:00N 25°46' W 080°10'0 0.0
2018-Jan-11 03:30N 25°46' W 080°10'0 0.0
2018-Jan-11 02:59N 25°46' W 080°10'0 0.0
2018-Jan-11 02:30N 25°46' W 080°10'0 0.0
2018-Jan-11 02:00N 25°46' W 080°10'0 0.0
2018-Jan-11 01:30N 25°46' W 080°10'1 2.5
2018-Jan-11 01:00N 25°46' W 080°09'1 1.5
2018-Jan-11 00:30N 25°46' W 080°10'1 2.4
2018-Jan-11 00:00N 25°46' W 080°09'2 5.0
2018-Jan-10 23:30N 25°46' W 080°06'0 0.3
2018-Jan-10 23:00N 25°46' W 080°06'4 7.2
2018-Jan-10 22:30N 25°46' W 080°10'1 1.6
2018-Jan-10 22:00N 25°46' W 080°10'0 0.0
2018-Jan-10 21:30N 25°46' W 080°10'0 0.0
2018-Jan-10 21:00N 25°46' W 080°10'0 0.0
2018-Jan-10 20:30N 25°46' W 080°10'0 0.0
2018-Jan-10 20:00N 25°46' W 080°10'0 0.0
2018-Jan-10 19:30N 25°46' W 080°10'0 0.0
2018-Jan-10 19:00N 25°46' W 080°10'0 0.0
2018-Jan-10 18:30N 25°46' W 080°10'0 0.0
2018-Jan-10 18:00N 25°46' W 080°10'0 0.0
2018-Jan-10 17:30N 25°46' W 080°10'0 0.0
2018-Jan-10 17:00N 25°46' W 080°10'0 0.0
2018-Jan-10 16:30N 25°46' W 080°10'0 0.0
2018-Jan-10 16:00N 25°46' W 080°10'0 0.0
2018-Jan-10 15:30N 25°46' W 080°10'0 0.0
2018-Jan-10 15:00N 25°46' W 080°10'0 0.0
2018-Jan-10 14:30N 25°46' W 080°10'0 0.0
2018-Jan-10 14:00N 25°46' W 080°10'0 0.0
2018-Jan-10 13:30N 25°46' W 080°10'0 0.0
2018-Jan-10 13:00N 25°46' W 080°10'0 0.0
2018-Jan-10 12:30N 25°46' W 080°10'0 0.0
2018-Jan-10 12:00N 25°46' W 080°10'0 0.0
2018-Jan-10 11:30N 25°46' W 080°10'0 0.0
2018-Jan-10 11:00N 25°46' W 080°10'0 0.0
2018-Jan-10 10:30N 25°46' W 080°10'0 0.0
2018-Jan-10 10:00N 25°46' W 080°10'0 0.0
2018-Jan-10 09:30N 25°46' W 080°10'0 0.0
2018-Jan-10 09:00N 25°46' W 080°10'0 0.0
2018-Jan-10 08:30N 25°46' W 080°10'0 0.0
2018-Jan-10 08:00N 25°46' W 080°10'0 0.0
2018-Jan-10 07:30N 25°46' W 080°10'0 0.0
2018-Jan-10 07:00N 25°46' W 080°10'0 0.0
2018-Jan-10 06:30N 25°46' W 080°10'0 0.0
2018-Jan-10 06:00N 25°46' W 080°10'0 0.0
2018-Jan-10 05:30N 25°46' W 080°10'0 0.0
2018-Jan-10 05:00N 25°46' W 080°10'0 0.0
2018-Jan-10 04:31N 25°46' W 080°10'0 0.0
2018-Jan-10 04:00N 25°46' W 080°10'0 0.0
2018-Jan-10 03:30N 25°46' W 080°10'0 0.0
2018-Jan-10 03:00N 25°46' W 080°10'0 0.0
2018-Jan-10 02:30N 25°46' W 080°10'0 0.0
2018-Jan-10 02:00N 25°46' W 080°10'0 0.0
2018-Jan-10 01:30N 25°46' W 080°10'0 0.0
2018-Jan-10 01:00N 25°46' W 080°10'0 0.0
2018-Jan-10 00:30N 25°46' W 080°10'0 0.0
2018-Jan-10 00:00N 25°46' W 080°10'0 0.0
2018-Jan-09 23:30N 25°46' W 080°10'0 0.0
2018-Jan-09 23:00N 25°46' W 080°10'0 0.0
2018-Jan-09 22:30N 25°46' W 080°10'0 0.0
2018-Jan-09 22:00N 25°46' W 080°10'0 0.0
2018-Jan-09 21:30N 25°46' W 080°10'0 0.0
2018-Jan-09 21:00N 25°46' W 080°10'0 0.0
2018-Jan-09 20:30N 25°46' W 080°10'0 0.0
2018-Jan-09 20:01N 25°46' W 080°10'0 0.0
2018-Jan-09 19:30N 25°46' W 080°10'0 0.0
2018-Jan-09 19:00N 25°46' W 080°10'0 0.0
2018-Jan-09 18:31N 25°46' W 080°10'0 0.0
2018-Jan-09 18:00N 25°46' W 080°10'0 0.0
2018-Jan-09 17:30N 25°46' W 080°10'0 0.0
2018-Jan-09 17:00N 25°46' W 080°10'0 0.0
2018-Jan-09 16:30N 25°46' W 080°10'0 0.0
2018-Jan-09 16:00N 25°46' W 080°10'0 0.0
2018-Jan-09 15:30N 25°46' W 080°10'0 0.0
2018-Jan-09 15:00N 25°46' W 080°10'0 0.0
2018-Jan-09 14:30N 25°46' W 080°10'0 0.0
2018-Jan-09 14:00N 25°46' W 080°10'0 0.0
2018-Jan-09 13:30N 25°46' W 080°10'0 0.0
2018-Jan-09 13:00N 25°46' W 080°10'0 0.0
2018-Jan-09 12:30N 25°46' W 080°10'0 0.0
2018-Jan-09 12:00N 25°46' W 080°10'0 0.0
2018-Jan-09 11:30N 25°46' W 080°10'0 0.0
2018-Jan-09 11:00N 25°46' W 080°10'0 0.0
2018-Jan-09 10:31N 25°46' W 080°10'0 0.0
2018-Jan-09 10:00N 25°46' W 080°10'0 0.0
2018-Jan-09 09:30N 25°46' W 080°10'0 0.0
2018-Jan-09 09:00N 25°46' W 080°10'0 0.0
2018-Jan-09 08:30N 25°46' W 080°10'0 0.0
2018-Jan-09 08:00N 25°46' W 080°10'0 0.0
2018-Jan-09 07:30N 25°46' W 080°10'0 0.0
2018-Jan-09 07:00N 25°46' W 080°10'0 0.0
2018-Jan-09 06:30N 25°46' W 080°10'0 0.0
2018-Jan-09 06:00N 25°46' W 080°10'0 0.0
2018-Jan-09 05:30N 25°46' W 080°10'0 0.0
2018-Jan-09 05:00N 25°46' W 080°10'0 0.0
2018-Jan-09 04:30N 25°46' W 080°10'0 0.0
2018-Jan-09 04:00N 25°46' W 080°10'0 0.0
2018-Jan-09 03:30N 25°46' W 080°10'0 0.0
2018-Jan-09 03:00N 25°46' W 080°10'0 0.0
2018-Jan-09 02:30N 25°46' W 080°10'0 0.0
2018-Jan-09 02:00N 25°46' W 080°10'0 0.0
2018-Jan-09 01:30N 25°46' W 080°10'0 0.0
2018-Jan-09 01:00N 25°46' W 080°10'0 0.0
2018-Jan-09 00:30N 25°46' W 080°10'0 0.0
2018-Jan-09 00:00N 25°46' W 080°10'0 0.0
2018-Jan-08 23:30N 25°46' W 080°10'0 0.0
2018-Jan-08 23:00N 25°46' W 080°10'0 0.0
2018-Jan-08 22:30N 25°46' W 080°10'0 0.0
2018-Jan-08 22:00N 25°46' W 080°10'0 0.0
2018-Jan-08 21:30N 25°46' W 080°10'0 0.0
2018-Jan-08 21:00N 25°46' W 080°10'0 0.0
2018-Jan-08 20:30N 25°46' W 080°10'1 1.9
2018-Jan-08 20:00N 25°46' W 080°10'4 7.1
2018-Jan-08 19:30N 25°46' W 080°06'4 8.6
2018-Jan-08 19:00N 25°42' W 080°03'5 9.1
2018-Jan-08 18:30N 25°38' W 080°02'5 9.3
2018-Jan-08 18:01N 25°33' W 080°02'5 9.1
2018-Jan-08 17:30N 25°28' W 080°03'190 4.2
2018-Jan-06 20:29N 27°42' W 082°33'4 7.8
2018-Jan-06 20:00N 27°45' W 082°32'3 7.0
2018-Jan-06 19:30N 27°48' W 082°29'4 7.1
2018-Jan-06 19:00N 27°51' W 082°27'4 7.8
2018-Jan-06 18:30N 27°54' W 082°26'1 2.9
2018-Jan-06 18:01N 27°56' W 082°26'0 0.0
2018-Jan-06 17:30N 27°56' W 082°26'0 0.0
2018-Jan-06 17:00N 27°56' W 082°26'0 0.0
2018-Jan-06 16:30N 27°56' W 082°26'0 0.0
2018-Jan-06 16:00N 27°56' W 082°26'0 0.0
2018-Jan-06 15:30N 27°56' W 082°26'0 0.0
2018-Jan-06 15:00N 27°56' W 082°26'0 0.0
2018-Jan-06 14:30N 27°56' W 082°26'1 1.5
2018-Jan-06 14:00N 27°55' W 082°26'1 1.9
2018-Jan-06 13:30N 27°55' W 082°27'0 0.0
2018-Jan-06 13:00N 27°55' W 082°27'0 0.0
2018-Jan-06 12:30N 27°55' W 082°27'0 0.0
2018-Jan-06 12:00N 27°55' W 082°27'0 0.0
2018-Jan-06 11:30N 27°55' W 082°27'0 0.0
2018-Jan-06 11:01N 27°55' W 082°27'0 0.0
2018-Jan-06 10:30N 27°55' W 082°27'0 0.0
2018-Jan-06 10:00N 27°55' W 082°27'0 0.0
2018-Jan-06 09:30N 27°55' W 082°27'0 0.0
2018-Jan-06 09:01N 27°55' W 082°27'0 0.0
2018-Jan-06 08:30N 27°55' W 082°27'0 0.0
2018-Jan-06 08:00N 27°55' W 082°27'0 0.0
2018-Jan-06 07:30N 27°55' W 082°27'0 0.0
2018-Jan-06 07:00N 27°55' W 082°27'0 0.0
2018-Jan-06 06:30N 27°55' W 082°27'0 0.0
2018-Jan-06 06:00N 27°55' W 082°27'0 0.0
2018-Jan-06 05:30N 27°55' W 082°27'0 0.0
2018-Jan-06 05:00N 27°55' W 082°27'0 0.0
2018-Jan-06 04:30N 27°55' W 082°27'0 0.0
2018-Jan-06 04:00N 27°55' W 082°27'0 0.0
2018-Jan-06 03:30N 27°55' W 082°27'0 0.0
2018-Jan-06 03:00N 27°55' W 082°27'0 0.0
2018-Jan-06 02:31N 27°55' W 082°27'0 0.0
2018-Jan-06 02:00N 27°55' W 082°27'0 0.0
2018-Jan-06 01:30N 27°55' W 082°27'0 0.0
2018-Jan-06 01:00N 27°55' W 082°27'0 0.0
2018-Jan-06 00:31N 27°55' W 082°27'0 0.0
2018-Jan-06 00:00N 27°55' W 082°27'0 0.0
2018-Jan-05 23:30N 27°55' W 082°27'0 0.0
2018-Jan-05 23:00N 27°55' W 082°27'0 0.0
2018-Jan-05 22:30N 27°55' W 082°27'0 0.0
2018-Jan-05 22:00N 27°55' W 082°27'0 0.0
2018-Jan-05 21:30N 27°55' W 082°27'0 0.0
2018-Jan-05 21:00N 27°55' W 082°27'0 0.0
2018-Jan-05 20:30N 27°55' W 082°27'0 0.0
2018-Jan-05 20:01N 27°55' W 082°27'0 0.0
2018-Jan-05 19:30N 27°55' W 082°27'0 0.0
2018-Jan-05 19:00N 27°55' W 082°27'0 0.0
2018-Jan-05 18:30N 27°55' W 082°27'0 0.0
2018-Jan-05 18:00N 27°55' W 082°27'0 0.0
2018-Jan-05 17:30N 27°55' W 082°27'0 0.0
2018-Jan-05 17:00N 27°55' W 082°27'0 0.0
2018-Jan-05 16:30N 27°55' W 082°27'0 0.0
2018-Jan-05 16:00N 27°55' W 082°27'0 0.0
2018-Jan-05 15:31N 27°55' W 082°27'0 0.0
2018-Jan-05 15:00N 27°55' W 082°27'0 0.0
2018-Jan-05 14:31N 27°55' W 082°27'0 0.0
2018-Jan-05 14:00N 27°55' W 082°27'0 0.0
2018-Jan-05 13:30N 27°55' W 082°27'0 0.0
2018-Jan-05 13:00N 27°55' W 082°27'0 0.0
2018-Jan-05 12:30N 27°55' W 082°27'0 0.0
2018-Jan-05 12:00N 27°55' W 082°27'0 0.0
2018-Jan-05 11:30N 27°55' W 082°27'0 0.0
2018-Jan-05 11:00N 27°55' W 082°27'0 0.0
2018-Jan-05 10:30N 27°55' W 082°27'0 0.0
2018-Jan-05 10:00N 27°55' W 082°27'0 0.0
2018-Jan-05 09:30N 27°55' W 082°27'0 0.0
2018-Jan-05 09:00N 27°55' W 082°27'0 0.0
2018-Jan-05 08:30N 27°55' W 082°27'0 0.0
2018-Jan-05 08:00N 27°55' W 082°27'0 0.0
2018-Jan-05 07:30N 27°55' W 082°27'0 0.0
2018-Jan-05 07:00N 27°55' W 082°27'0 0.0
2018-Jan-05 06:30N 27°55' W 082°27'0 0.0
2018-Jan-05 06:00N 27°55' W 082°27'0 0.0
2018-Jan-05 05:30N 27°55' W 082°27'0 0.0
2018-Jan-05 05:01N 27°55' W 082°27'0 0.0
2018-Jan-05 04:30N 27°55' W 082°27'0 0.0
2018-Jan-05 04:00N 27°55' W 082°27'0 0.0
2018-Jan-05 03:30N 27°55' W 082°27'0 0.0
2018-Jan-05 03:00N 27°55' W 082°27'0 0.0
2018-Jan-05 02:30N 27°55' W 082°27'0 0.0
2018-Jan-05 02:00N 27°55' W 082°27'0 0.0
2018-Jan-05 01:30N 27°55' W 082°27'0 0.0
2018-Jan-05 01:00N 27°55' W 082°27'0 0.0
2018-Jan-05 00:31N 27°55' W 082°27'0 0.0
2018-Jan-05 00:00N 27°55' W 082°27'0 0.0
2018-Jan-04 23:30N 27°55' W 082°27'0 0.5
2018-Jan-04 23:00N 27°55' W 082°27'0 0.7
2018-Jan-04 22:31N 27°55' W 082°27'2 4.1
2018-Jan-04 22:00N 27°53' W 082°26'3 5.1
2018-Jan-04 21:30N 27°55' W 082°27'0 0.1
2018-Jan-04 21:00N 27°55' W 082°27'0 0.0
2018-Jan-04 20:30N 27°55' W 082°27'0 0.0
2018-Jan-04 20:00N 27°55' W 082°27'0 0.0
2018-Jan-04 19:31N 27°55' W 082°27'0 0.0
2018-Jan-04 19:01N 27°55' W 082°27'0 0.0
2018-Jan-04 18:30N 27°55' W 082°27'0 0.0
2018-Jan-04 18:00N 27°55' W 082°27'0 0.0
2018-Jan-04 17:31N 27°55' W 082°27'0 0.0
2018-Jan-04 17:00N 27°55' W 082°27'0 0.0
2018-Jan-04 16:30N 27°55' W 082°27'0 0.0
2018-Jan-04 16:00N 27°55' W 082°27'0 0.0
2018-Jan-04 15:30N 27°55' W 082°27'0 0.0
2018-Jan-04 15:00N 27°55' W 082°27'0 0.0
2018-Jan-04 14:30N 27°55' W 082°27'0 0.0
2018-Jan-04 14:00N 27°55' W 082°27'0 0.0
2018-Jan-04 13:30N 27°55' W 082°27'0 0.0
2018-Jan-04 13:00N 27°55' W 082°27'0 0.0
2018-Jan-04 12:31N 27°55' W 082°27'0 0.0
2018-Jan-04 12:00N 27°55' W 082°27'0 0.0
2018-Jan-04 11:31N 27°55' W 082°27'0 0.0
2018-Jan-04 11:00N 27°55' W 082°27'0 0.0
2018-Jan-04 10:30N 27°55' W 082°27'0 0.0
2018-Jan-04 10:01N 27°55' W 082°27'0 0.0
2018-Jan-04 09:30N 27°55' W 082°27'0 0.0
2018-Jan-04 09:00N 27°55' W 082°27'0 0.0
2018-Jan-04 08:30N 27°55' W 082°27'0 0.0
2018-Jan-04 08:01N 27°55' W 082°27'0 0.0
2018-Jan-04 07:30N 27°55' W 082°27'0 0.0
2018-Jan-04 07:00N 27°55' W 082°27'0 0.0
2018-Jan-04 06:30N 27°55' W 082°27'0 0.0
2018-Jan-04 06:00N 27°55' W 082°27'0 0.0
2018-Jan-04 05:30N 27°55' W 082°27'0 0.0
2018-Jan-04 05:00N 27°55' W 082°27'0 0.0
2018-Jan-04 04:30N 27°55' W 082°27'0 0.0
2018-Jan-04 04:01N 27°55' W 082°27'0 0.0
2018-Jan-04 03:31N 27°55' W 082°27'0 0.0
2018-Jan-04 03:00N 27°55' W 082°27'0 0.0
2018-Jan-04 02:30N 27°55' W 082°27'0 0.0
2018-Jan-04 02:00N 27°55' W 082°27'0 0.0
2018-Jan-04 01:30N 27°55' W 082°27'0 0.0
2018-Jan-04 01:00N 27°55' W 082°27'0 0.0
2018-Jan-04 00:30N 27°55' W 082°27'0 0.0
2018-Jan-04 00:01N 27°55' W 082°27'0 0.0
2018-Jan-03 23:30N 27°55' W 082°27'0 0.0
2018-Jan-03 23:01N 27°55' W 082°27'0 0.0
2018-Jan-03 22:30N 27°55' W 082°27'0 0.0
2018-Jan-03 22:01N 27°55' W 082°27'0 0.0
2018-Jan-03 21:31N 27°55' W 082°27'0 0.0
2018-Jan-03 21:00N 27°55' W 082°27'0 0.0
2018-Jan-03 20:30N 27°55' W 082°27'0 0.0
2018-Jan-03 20:00N 27°55' W 082°27'0 0.0
2018-Jan-03 19:30N 27°55' W 082°27'0 0.0
2018-Jan-03 19:01N 27°55' W 082°27'0 0.0
2018-Jan-03 18:30N 27°55' W 082°27'0 0.0
2018-Jan-03 18:01N 27°55' W 082°27'0 0.0
2018-Jan-03 17:30N 27°55' W 082°27'0 0.0
2018-Jan-03 17:01N 27°55' W 082°27'0 0.0
2018-Jan-03 16:30N 27°55' W 082°27'0 0.0
2018-Jan-03 16:00N 27°55' W 082°27'0 0.0
2018-Jan-03 15:30N 27°55' W 082°27'0 0.0
2018-Jan-03 15:00N 27°55' W 082°27'0 0.0
2018-Jan-03 14:31N 27°55' W 082°27'0 0.0
2018-Jan-03 14:00N 27°55' W 082°27'0 0.0
2018-Jan-03 13:30N 27°55' W 082°27'0 0.0
2018-Jan-03 13:00N 27°55' W 082°27'0 0.0
2018-Jan-03 12:31N 27°55' W 082°27'0 0.0
2018-Jan-03 12:00N 27°55' W 082°27'0 0.0
2018-Jan-03 11:30N 27°55' W 082°27'0 0.0
2018-Jan-03 11:00N 27°55' W 082°27'0 0.0
2018-Jan-03 10:30N 27°55' W 082°27'0 0.0
2018-Jan-03 10:00N 27°55' W 082°27'0 0.0
2018-Jan-03 09:30N 27°55' W 082°27'0 0.0
2018-Jan-03 09:00N 27°55' W 082°27'0 0.0
2018-Jan-03 08:30N 27°55' W 082°27'0 0.0
2018-Jan-03 08:00N 27°55' W 082°27'0 0.0
2018-Jan-03 07:30N 27°55' W 082°27'0 0.0
2018-Jan-03 07:00N 27°55' W 082°27'0 0.0
2018-Jan-03 06:30N 27°55' W 082°27'0 0.0
2018-Jan-03 06:00N 27°55' W 082°27'0 0.0
2018-Jan-03 05:30N 27°55' W 082°27'0 0.0
2018-Jan-03 05:01N 27°55' W 082°27'0 0.0
2018-Jan-03 04:30N 27°55' W 082°27'0 0.0
2018-Jan-03 04:01N 27°55' W 082°27'0 0.0
2018-Jan-03 03:30N 27°55' W 082°27'0 0.0
2018-Jan-03 03:00N 27°55' W 082°27'0 0.0
2018-Jan-03 02:30N 27°55' W 082°27'0 0.0
2018-Jan-03 02:00N 27°55' W 082°27'0 0.0
2018-Jan-03 01:31N 27°55' W 082°27'0 0.0
2018-Jan-03 01:00N 27°55' W 082°27'0 0.0
2018-Jan-03 00:30N 27°55' W 082°27'0 0.0
2018-Jan-03 00:00N 27°55' W 082°27'0 0.0
2018-Jan-02 23:30N 27°55' W 082°27'0 0.0
2018-Jan-02 23:00N 27°55' W 082°27'0 0.0
2018-Jan-02 22:30N 27°55' W 082°27'0 0.0
2018-Jan-02 22:01N 27°55' W 082°27'0 0.0
2018-Jan-02 21:30N 27°55' W 082°27'0 0.0
2018-Jan-02 21:00N 27°55' W 082°27'0 0.0
2018-Jan-02 20:31N 27°55' W 082°27'0 0.0
2018-Jan-02 20:00N 27°55' W 082°27'0 0.0
2018-Jan-02 19:30N 27°55' W 082°27'0 0.0
2018-Jan-02 19:00N 27°55' W 082°27'0 0.0
2018-Jan-02 18:30N 27°55' W 082°27'0 0.0
2018-Jan-02 18:00N 27°55' W 082°27'0 0.0
2018-Jan-02 17:31N 27°55' W 082°27'0 0.0
2018-Jan-02 17:00N 27°55' W 082°27'0 0.0
2018-Jan-02 16:30N 27°55' W 082°27'0 0.0
2018-Jan-02 16:00N 27°55' W 082°27'0 0.0
2018-Jan-02 15:30N 27°55' W 082°27'0 0.0
2018-Jan-02 15:00N 27°55' W 082°27'  
Track history (hours):
 
Tides and Currents Weather Stations Pressure Air Temp Water Temp Dewpoint Dewpoint Depression Visibility Wind Speed Wind Dir Waves Ship Positions

Tug Hawk

Owner: Seabulk Towing, Inc., FORT LAUDERDALE, FL. More information available from US FCC via Universal Licensing System and Coast Guard Vessel Documentation Center.

Last reported at 2018-Jan-12 14:59 UTC. Time now 2018-Feb-22 22:56 UTC.
Position N 26°05' W 080°07'.
Warning: this ship's position is 41 days out of date.

Length 32 m; draft 5 m.

Type: Tug. MMSI: 366943250.

Date/timePositionNaut miles runAvg speedWind from/ knotsBaromVisibWave heightAir tempDewpointWater temp
2018-Jan-12 14:59N 26°05' W 080°07'0 0.0
2018-Jan-12 14:30N 26°05' W 080°07'0 0.0
2018-Jan-12 14:00N 26°05' W 080°07'0 0.0
2018-Jan-12 13:29N 26°05' W 080°07'0 0.0
2018-Jan-12 13:00N 26°05' W 080°07'0 0.0
2018-Jan-12 12:30N 26°05' W 080°07'0 0.0
2018-Jan-12 12:00N 26°05' W 080°07'0 0.0
2018-Jan-12 11:30N 26°05' W 080°07'0 0.0
2018-Jan-12 10:59N 26°05' W 080°07'0 0.0
2018-Jan-12 10:30N 26°05' W 080°07'0 0.0
2018-Jan-12 10:00N 26°05' W 080°07'0 0.0
2018-Jan-12 09:30N 26°05' W 080°07'0 0.0
2018-Jan-12 09:00N 26°05' W 080°07'0 0.0
2018-Jan-12 08:30N 26°05' W 080°07'0 0.0
2018-Jan-12 08:00N 26°05' W 080°07'0 0.0
2018-Jan-12 07:30N 26°05' W 080°07'0 0.0
2018-Jan-12 07:00N 26°05' W 080°07'0 0.0
2018-Jan-12 06:30N 26°05' W 080°07'0 0.0
2018-Jan-12 05:59N 26°05' W 080°07'0 0.0
2018-Jan-12 05:30N 26°05' W 080°07'0 0.0
2018-Jan-12 05:00N 26°05' W 080°07'2 4.3
2018-Jan-12 04:30N 26°04' W 080°05'5 9.0
2018-Jan-12 04:00N 25°60' W 080°05'5 9.0
2018-Jan-12 03:30N 25°55' W 080°05'5 9.2
2018-Jan-12 03:00N 25°51' W 080°05'5 9.2
2018-Jan-12 02:30N 25°46' W 080°05'4 8.2
2018-Jan-12 02:00N 25°46' W 080°10'1 1.5
2018-Jan-12 01:30N 25°46' W 080°10'0 0.0
2018-Jan-12 01:01N 25°46' W 080°10'0 0.0
2018-Jan-12 00:30N 25°46' W 080°10'0 0.0
2018-Jan-12 00:00N 25°46' W 080°10'0 0.0
2018-Jan-11 23:30N 25°46' W 080°10'0 0.0
2018-Jan-11 23:00N 25°46' W 080°10'0 0.0
2018-Jan-11 22:30N 25°46' W 080°10'0 0.0
2018-Jan-11 22:00N 25°46' W 080°10'0 0.0
2018-Jan-11 21:30N 25°46' W 080°10'0 0.0
2018-Jan-11 21:00N 25°46' W 080°10'0 0.0
2018-Jan-11 20:30N 25°46' W 080°10'0 0.0
2018-Jan-11 20:00N 25°46' W 080°10'0 0.0
2018-Jan-11 19:30N 25°46' W 080°10'0 0.0
2018-Jan-11 19:00N 25°46' W 080°10'0 0.0
2018-Jan-11 18:30N 25°46' W 080°10'0 0.0
2018-Jan-11 17:59N 25°46' W 080°10'0 0.0
2018-Jan-11 17:30N 25°46' W 080°10'0 0.0
2018-Jan-11 17:00N 25°46' W 080°10'0 0.0
2018-Jan-11 16:30N 25°46' W 080°10'0 0.0
2018-Jan-11 16:00N 25°46' W 080°10'0 0.0
2018-Jan-11 15:30N 25°46' W 080°10'0 0.0
2018-Jan-11 15:00N 25°46' W 080°10'0 0.0
2018-Jan-11 14:30N 25°46' W 080°10'0 0.0
2018-Jan-11 14:00N 25°46' W 080°10'0 0.0
2018-Jan-11 13:30N 25°46' W 080°10'0 0.0
2018-Jan-11 13:00N 25°46' W 080°10'0 0.0
2018-Jan-11 12:30N 25°46' W 080°10'0 0.0
2018-Jan-11 12:00N 25°46' W 080°10'0 0.0
2018-Jan-11 11:30N 25°46' W 080°10'0 0.9
2018-Jan-11 11:00N 25°46' W 080°10'1 1.2
2018-Jan-11 10:31N 25°46' W 080°09'1 1.3
2018-Jan-11 10:00N 25°46' W 080°09'2 4.1
2018-Jan-11 09:30N 25°45' W 080°06'0 0.6
2018-Jan-11 09:00N 25°45' W 080°07'3 6.7
2018-Jan-11 08:30N 25°46' W 080°10'0 0.2
2018-Jan-11 08:00N 25°46' W 080°10'0 0.0
2018-Jan-11 07:30N 25°46' W 080°10'0 0.0
2018-Jan-11 07:00N 25°46' W 080°10'0 0.0
2018-Jan-11 06:30N 25°46' W 080°10'0 0.0
2018-Jan-11 06:00N 25°46' W 080°10'0 0.0
2018-Jan-11 05:30N 25°46' W 080°10'0 0.0
2018-Jan-11 05:00N 25°46' W 080°10'0 0.0
2018-Jan-11 04:30N 25°46' W 080°10'0 0.0
2018-Jan-11 04:00N 25°46' W 080°10'0 0.0
2018-Jan-11 03:30N 25°46' W 080°10'0 0.0
2018-Jan-11 02:59N 25°46' W 080°10'0 0.0
2018-Jan-11 02:30N 25°46' W 080°10'0 0.0
2018-Jan-11 02:00N 25°46' W 080°10'0 0.0
2018-Jan-11 01:30N 25°46' W 080°10'1 2.5
2018-Jan-11 01:00N 25°46' W 080°09'1 1.5
2018-Jan-11 00:30N 25°46' W 080°10'1 2.4
2018-Jan-11 00:00N 25°46' W 080°09'2 5.0
2018-Jan-10 23:30N 25°46' W 080°06'0 0.3
2018-Jan-10 23:00N 25°46' W 080°06'4 7.2
2018-Jan-10 22:30N 25°46' W 080°10'1 1.6
2018-Jan-10 22:00N 25°46' W 080°10'0 0.0
2018-Jan-10 21:30N 25°46' W 080°10'0 0.0
2018-Jan-10 21:00N 25°46' W 080°10'0 0.0
2018-Jan-10 20:30N 25°46' W 080°10'0 0.0
2018-Jan-10 20:00N 25°46' W 080°10'0 0.0
2018-Jan-10 19:30N 25°46' W 080°10'0 0.0
2018-Jan-10 19:00N 25°46' W 080°10'0 0.0
2018-Jan-10 18:30N 25°46' W 080°10'0 0.0
2018-Jan-10 18:00N 25°46' W 080°10'0 0.0
2018-Jan-10 17:30N 25°46' W 080°10'0 0.0
2018-Jan-10 17:00N 25°46' W 080°10'0 0.0
2018-Jan-10 16:30N 25°46' W 080°10'0 0.0
2018-Jan-10 16:00N 25°46' W 080°10'0 0.0
2018-Jan-10 15:30N 25°46' W 080°10'0 0.0
2018-Jan-10 15:00N 25°46' W 080°10'0 0.0
2018-Jan-10 14:30N 25°46' W 080°10'0 0.0
2018-Jan-10 14:00N 25°46' W 080°10'0 0.0
2018-Jan-10 13:30N 25°46' W 080°10'0 0.0
2018-Jan-10 13:00N 25°46' W 080°10'0 0.0
2018-Jan-10 12:30N 25°46' W 080°10'0 0.0
2018-Jan-10 12:00N 25°46' W 080°10'0 0.0
2018-Jan-10 11:30N 25°46' W 080°10'0 0.0
2018-Jan-10 11:00N 25°46' W 080°10'0 0.0
2018-Jan-10 10:30N 25°46' W 080°10'0 0.0
2018-Jan-10 10:00N 25°46' W 080°10'0 0.0
2018-Jan-10 09:30N 25°46' W 080°10'0 0.0
2018-Jan-10 09:00N 25°46' W 080°10'0 0.0
2018-Jan-10 08:30N 25°46' W 080°10'0 0.0
2018-Jan-10 08:00N 25°46' W 080°10'0 0.0
2018-Jan-10 07:30N 25°46' W 080°10'0 0.0
2018-Jan-10 07:00N 25°46' W 080°10'0 0.0
2018-Jan-10 06:30N 25°46' W 080°10'0 0.0
2018-Jan-10 06:00N 25°46' W 080°10'0 0.0
2018-Jan-10 05:30N 25°46' W 080°10'0 0.0
2018-Jan-10 05:00N 25°46' W 080°10'0 0.0
2018-Jan-10 04:31N 25°46' W 080°10'0 0.0
2018-Jan-10 04:00N 25°46' W 080°10'0 0.0
2018-Jan-10 03:30N 25°46' W 080°10'0 0.0
2018-Jan-10 03:00N 25°46' W 080°10'0 0.0
2018-Jan-10 02:30N 25°46' W 080°10'0 0.0
2018-Jan-10 02:00N 25°46' W 080°10'0 0.0
2018-Jan-10 01:30N 25°46' W 080°10'0 0.0
2018-Jan-10 01:00N 25°46' W 080°10'0 0.0
2018-Jan-10 00:30N 25°46' W 080°10'0 0.0
2018-Jan-10 00:00N 25°46' W 080°10'0 0.0
2018-Jan-09 23:30N 25°46' W 080°10'0 0.0
2018-Jan-09 23:00N 25°46' W 080°10'0 0.0
2018-Jan-09 22:30N 25°46' W 080°10'0 0.0
2018-Jan-09 22:00N 25°46' W 080°10'0 0.0
2018-Jan-09 21:30N 25°46' W 080°10'0 0.0
2018-Jan-09 21:00N 25°46' W 080°10'0 0.0
2018-Jan-09 20:30N 25°46' W 080°10'0 0.0
2018-Jan-09 20:01N 25°46' W 080°10'0 0.0
2018-Jan-09 19:30N 25°46' W 080°10'0 0.0
2018-Jan-09 19:00N 25°46' W 080°10'0 0.0
2018-Jan-09 18:31N 25°46' W 080°10'0 0.0
2018-Jan-09 18:00N 25°46' W 080°10'0 0.0
2018-Jan-09 17:30N 25°46' W 080°10'0 0.0
2018-Jan-09 17:00N 25°46' W 080°10'0 0.0
2018-Jan-09 16:30N 25°46' W 080°10'0 0.0
2018-Jan-09 16:00N 25°46' W 080°10'0 0.0
2018-Jan-09 15:30N 25°46' W 080°10'0 0.0
2018-Jan-09 15:00N 25°46' W 080°10'0 0.0
2018-Jan-09 14:30N 25°46' W 080°10'0 0.0
2018-Jan-09 14:00N 25°46' W 080°10'0 0.0
2018-Jan-09 13:30N 25°46' W 080°10'0 0.0
2018-Jan-09 13:00N 25°46' W 080°10'0 0.0
2018-Jan-09 12:30N 25°46' W 080°10'0 0.0
2018-Jan-09 12:00N 25°46' W 080°10'0 0.0
2018-Jan-09 11:30N 25°46' W 080°10'0 0.0
2018-Jan-09 11:00N 25°46' W 080°10'0 0.0
2018-Jan-09 10:31N 25°46' W 080°10'0 0.0
2018-Jan-09 10:00N 25°46' W 080°10'0 0.0
2018-Jan-09 09:30N 25°46' W 080°10'0 0.0
2018-Jan-09 09:00N 25°46' W 080°10'0 0.0
2018-Jan-09 08:30N 25°46' W 080°10'0 0.0
2018-Jan-09 08:00N 25°46' W 080°10'0 0.0
2018-Jan-09 07:30N 25°46' W 080°10'0 0.0
2018-Jan-09 07:00N 25°46' W 080°10'0 0.0
2018-Jan-09 06:30N 25°46' W 080°10'0 0.0
2018-Jan-09 06:00N 25°46' W 080°10'0 0.0
2018-Jan-09 05:30N 25°46' W 080°10'0 0.0
2018-Jan-09 05:00N 25°46' W 080°10'0 0.0
2018-Jan-09 04:30N 25°46' W 080°10'0 0.0
2018-Jan-09 04:00N 25°46' W 080°10'0 0.0
2018-Jan-09 03:30N 25°46' W 080°10'0 0.0
2018-Jan-09 03:00N 25°46' W 080°10'0 0.0
2018-Jan-09 02:30N 25°46' W 080°10'0 0.0
2018-Jan-09 02:00N 25°46' W 080°10'0 0.0
2018-Jan-09 01:30N 25°46' W 080°10'0 0.0
2018-Jan-09 01:00N 25°46' W 080°10'0 0.0
2018-Jan-09 00:30N 25°46' W 080°10'0 0.0
2018-Jan-09 00:00N 25°46' W 080°10'0 0.0
2018-Jan-08 23:30N 25°46' W 080°10'0 0.0
2018-Jan-08 23:00N 25°46' W 080°10'0 0.0
2018-Jan-08 22:30N 25°46' W 080°10'0 0.0
2018-Jan-08 22:00N 25°46' W 080°10'0 0.0
2018-Jan-08 21:30N 25°46' W 080°10'0 0.0
2018-Jan-08 21:00N 25°46' W 080°10'0 0.0
2018-Jan-08 20:30N 25°46' W 080°10'1 1.9
2018-Jan-08 20:00N 25°46' W 080°10'4 7.1
2018-Jan-08 19:30N 25°46' W 080°06'4 8.6
2018-Jan-08 19:00N 25°42' W 080°03'5 9.1
2018-Jan-08 18:30N 25°38' W 080°02'5 9.3
2018-Jan-08 18:01N 25°33' W 080°02'5 9.1
2018-Jan-08 17:30N 25°28' W 080°03'190 4.2
2018-Jan-06 20:29N 27°42' W 082°33'4 7.8
2018-Jan-06 20:00N 27°45' W 082°32'3 7.0
2018-Jan-06 19:30N 27°48' W 082°29'4 7.1
2018-Jan-06 19:00N 27°51' W 082°27'4 7.8
2018-Jan-06 18:30N 27°54' W 082°26'1 2.9
2018-Jan-06 18:01N 27°56' W 082°26'0 0.0
2018-Jan-06 17:30N 27°56' W 082°26'0 0.0
2018-Jan-06 17:00N 27°56' W 082°26'0 0.0
2018-Jan-06 16:30N 27°56' W 082°26'0 0.0
2018-Jan-06 16:00N 27°56' W 082°26'0 0.0
2018-Jan-06 15:30N 27°56' W 082°26'0 0.0
2018-Jan-06 15:00N 27°56' W 082°26'0 0.0
2018-Jan-06 14:30N 27°56' W 082°26'1 1.5
2018-Jan-06 14:00N 27°55' W 082°26'1 1.9
2018-Jan-06 13:30N 27°55' W 082°27'0 0.0
2018-Jan-06 13:00N 27°55' W 082°27'0 0.0
2018-Jan-06 12:30N 27°55' W 082°27'0 0.0
2018-Jan-06 12:00N 27°55' W 082°27'0 0.0
2018-Jan-06 11:30N 27°55' W 082°27'0 0.0
2018-Jan-06 11:01N 27°55' W 082°27'0 0.0
2018-Jan-06 10:30N 27°55' W 082°27'0 0.0
2018-Jan-06 10:00N 27°55' W 082°27'0 0.0
2018-Jan-06 09:30N 27°55' W 082°27'0 0.0
2018-Jan-06 09:01N 27°55' W 082°27'0 0.0
2018-Jan-06 08:30N 27°55' W 082°27'0 0.0
2018-Jan-06 08:00N 27°55' W 082°27'0 0.0
2018-Jan-06 07:30N 27°55' W 082°27'0 0.0
2018-Jan-06 07:00N 27°55' W 082°27'0 0.0
2018-Jan-06 06:30N 27°55' W 082°27'0 0.0
2018-Jan-06 06:00N 27°55' W 082°27'0 0.0
2018-Jan-06 05:30N 27°55' W 082°27'0 0.0
2018-Jan-06 05:00N 27°55' W 082°27'0 0.0
2018-Jan-06 04:30N 27°55' W 082°27'0 0.0
2018-Jan-06 04:00N 27°55' W 082°27'0 0.0
2018-Jan-06 03:30N 27°55' W 082°27'0 0.0
2018-Jan-06 03:00N 27°55' W 082°27'0 0.0
2018-Jan-06 02:31N 27°55' W 082°27'0 0.0
2018-Jan-06 02:00N 27°55' W 082°27'0 0.0
2018-Jan-06 01:30N 27°55' W 082°27'0 0.0
2018-Jan-06 01:00N 27°55' W 082°27'0 0.0
2018-Jan-06 00:31N 27°55' W 082°27'0 0.0
2018-Jan-06 00:00N 27°55' W 082°27'0 0.0
2018-Jan-05 23:30N 27°55' W 082°27'0 0.0
2018-Jan-05 23:00N 27°55' W 082°27'0 0.0
2018-Jan-05 22:30N 27°55' W 082°27'0 0.0
2018-Jan-05 22:00N 27°55' W 082°27'0 0.0
2018-Jan-05 21:30N 27°55' W 082°27'0 0.0
2018-Jan-05 21:00N 27°55' W 082°27'0 0.0
2018-Jan-05 20:30N 27°55' W 082°27'0 0.0
2018-Jan-05 20:01N 27°55' W 082°27'0 0.0
2018-Jan-05 19:30N 27°55' W 082°27'0 0.0
2018-Jan-05 19:00N 27°55' W 082°27'0 0.0
2018-Jan-05 18:30N 27°55' W 082°27'0 0.0
2018-Jan-05 18:00N 27°55' W 082°27'0 0.0
2018-Jan-05 17:30N 27°55' W 082°27'0 0.0
2018-Jan-05 17:00N 27°55' W 082°27'0 0.0
2018-Jan-05 16:30N 27°55' W 082°27'0 0.0
2018-Jan-05 16:00N 27°55' W 082°27'0 0.0
2018-Jan-05 15:31N 27°55' W 082°27'0 0.0
2018-Jan-05 15:00N 27°55' W 082°27'0 0.0
2018-Jan-05 14:31N 27°55' W 082°27'0 0.0
2018-Jan-05 14:00N 27°55' W 082°27'0 0.0
2018-Jan-05 13:30N 27°55' W 082°27'0 0.0
2018-Jan-05 13:00N 27°55' W 082°27'0 0.0
2018-Jan-05 12:30N 27°55' W 082°27'0 0.0
2018-Jan-05 12:00N 27°55' W 082°27'0 0.0
2018-Jan-05 11:30N 27°55' W 082°27'0 0.0
2018-Jan-05 11:00N 27°55' W 082°27'0 0.0
2018-Jan-05 10:30N 27°55' W 082°27'0 0.0
2018-Jan-05 10:00N 27°55' W 082°27'0 0.0
2018-Jan-05 09:30N 27°55' W 082°27'0 0.0
2018-Jan-05 09:00N 27°55' W 082°27'0 0.0
2018-Jan-05 08:30N 27°55' W 082°27'0 0.0
2018-Jan-05 08:00N 27°55' W 082°27'0 0.0
2018-Jan-05 07:30N 27°55' W 082°27'0 0.0
2018-Jan-05 07:00N 27°55' W 082°27'0 0.0
2018-Jan-05 06:30N 27°55' W 082°27'0 0.0
2018-Jan-05 06:00N 27°55' W 082°27'0 0.0
2018-Jan-05 05:30N 27°55' W 082°27'0 0.0
2018-Jan-05 05:01N 27°55' W 082°27'0 0.0
2018-Jan-05 04:30N 27°55' W 082°27'0 0.0
2018-Jan-05 04:00N 27°55' W 082°27'0 0.0
2018-Jan-05 03:30N 27°55' W 082°27'0 0.0
2018-Jan-05 03:00N 27°55' W 082°27'0 0.0
2018-Jan-05 02:30N 27°55' W 082°27'0 0.0
2018-Jan-05 02:00N 27°55' W 082°27'0 0.0
2018-Jan-05 01:30N 27°55' W 082°27'0 0.0
2018-Jan-05 01:00N 27°55' W 082°27'0 0.0
2018-Jan-05 00:31N 27°55' W 082°27'0 0.0
2018-Jan-05 00:00N 27°55' W 082°27'0 0.0
2018-Jan-04 23:30N 27°55' W 082°27'0 0.5
2018-Jan-04 23:00N 27°55' W 082°27'0 0.7
2018-Jan-04 22:31N 27°55' W 082°27'2 4.1
2018-Jan-04 22:00N 27°53' W 082°26'3 5.1
2018-Jan-04 21:30N 27°55' W 082°27'0 0.1
2018-Jan-04 21:00N 27°55' W 082°27'0 0.0
2018-Jan-04 20:30N 27°55' W 082°27'0 0.0
2018-Jan-04 20:00N 27°55' W 082°27'0 0.0
2018-Jan-04 19:31N 27°55' W 082°27'0 0.0
2018-Jan-04 19:01N 27°55' W 082°27'0 0.0
2018-Jan-04 18:30N 27°55' W 082°27'0 0.0
2018-Jan-04 18:00N 27°55' W 082°27'0 0.0
2018-Jan-04 17:31N 27°55' W 082°27'0 0.0
2018-Jan-04 17:00N 27°55' W 082°27'0 0.0
2018-Jan-04 16:30N 27°55' W 082°27'0 0.0
2018-Jan-04 16:00N 27°55' W 082°27'0 0.0
2018-Jan-04 15:30N 27°55' W 082°27'0 0.0
2018-Jan-04 15:00N 27°55' W 082°27'0 0.0
2018-Jan-04 14:30N 27°55' W 082°27'0 0.0
2018-Jan-04 14:00N 27°55' W 082°27'0 0.0
2018-Jan-04 13:30N 27°55' W 082°27'0 0.0
2018-Jan-04 13:00N 27°55' W 082°27'0 0.0
2018-Jan-04 12:31N 27°55' W 082°27'0 0.0
2018-Jan-04 12:00N 27°55' W 082°27'0 0.0
2018-Jan-04 11:31N 27°55' W 082°27'0 0.0
2018-Jan-04 11:00N 27°55' W 082°27'0 0.0
2018-Jan-04 10:30N 27°55' W 082°27'0 0.0
2018-Jan-04 10:01N 27°55' W 082°27'0 0.0
2018-Jan-04 09:30N 27°55' W 082°27'0 0.0
2018-Jan-04 09:00N 27°55' W 082°27'0 0.0
2018-Jan-04 08:30N 27°55' W 082°27'0 0.0
2018-Jan-04 08:01N 27°55' W 082°27'0 0.0
2018-Jan-04 07:30N 27°55' W 082°27'0 0.0
2018-Jan-04 07:00N 27°55' W 082°27'0 0.0
2018-Jan-04 06:30N 27°55' W 082°27'0 0.0
2018-Jan-04 06:00N 27°55' W 082°27'0 0.0
2018-Jan-04 05:30N 27°55' W 082°27'0 0.0
2018-Jan-04 05:00N 27°55' W 082°27'0 0.0
2018-Jan-04 04:30N 27°55' W 082°27'0 0.0
2018-Jan-04 04:01N 27°55' W 082°27'0 0.0
2018-Jan-04 03:31N 27°55' W 082°27'0 0.0
2018-Jan-04 03:00N 27°55' W 082°27'0 0.0
2018-Jan-04 02:30N 27°55' W 082°27'0 0.0
2018-Jan-04 02:00N 27°55' W 082°27'0 0.0
2018-Jan-04 01:30N 27°55' W 082°27'0 0.0
2018-Jan-04 01:00N 27°55' W 082°27'0 0.0
2018-Jan-04 00:30N 27°55' W 082°27'0 0.0
2018-Jan-04 00:01N 27°55' W 082°27'0 0.0
2018-Jan-03 23:30N 27°55' W 082°27'0 0.0
2018-Jan-03 23:01N 27°55' W 082°27'0 0.0
2018-Jan-03 22:30N 27°55' W 082°27'0 0.0
2018-Jan-03 22:01N 27°55' W 082°27'0 0.0
2018-Jan-03 21:31N 27°55' W 082°27'0 0.0
2018-Jan-03 21:00N 27°55' W 082°27'0 0.0
2018-Jan-03 20:30N 27°55' W 082°27'0 0.0
2018-Jan-03 20:00N 27°55' W 082°27'0 0.0
2018-Jan-03 19:30N 27°55' W 082°27'0 0.0
2018-Jan-03 19:01N 27°55' W 082°27'0 0.0
2018-Jan-03 18:30N 27°55' W 082°27'0 0.0
2018-Jan-03 18:01N 27°55' W 082°27'0 0.0
2018-Jan-03 17:30N 27°55' W 082°27'0 0.0
2018-Jan-03 17:01N 27°55' W 082°27'0 0.0
2018-Jan-03 16:30N 27°55' W 082°27'0 0.0
2018-Jan-03 16:00N 27°55' W 082°27'0 0.0
2018-Jan-03 15:30N 27°55' W 082°27'0 0.0
2018-Jan-03 15:00N 27°55' W 082°27'0 0.0
2018-Jan-03 14:31N 27°55' W 082°27'0 0.0
2018-Jan-03 14:00N 27°55' W 082°27'0 0.0
2018-Jan-03 13:30N 27°55' W 082°27'0 0.0
2018-Jan-03 13:00N 27°55' W 082°27'0 0.0
2018-Jan-03 12:31N 27°55' W 082°27'0 0.0
2018-Jan-03 12:00N 27°55' W 082°27'0 0.0
2018-Jan-03 11:30N 27°55' W 082°27'0 0.0
2018-Jan-03 11:00N 27°55' W 082°27'0 0.0
2018-Jan-03 10:30N 27°55' W 082°27'0 0.0
2018-Jan-03 10:00N 27°55' W 082°27'0 0.0
2018-Jan-03 09:30N 27°55' W 082°27'0 0.0
2018-Jan-03 09:00N 27°55' W 082°27'0 0.0
2018-Jan-03 08:30N 27°55' W 082°27'0 0.0
2018-Jan-03 08:00N 27°55' W 082°27'0 0.0
2018-Jan-03 07:30N 27°55' W 082°27'0 0.0
2018-Jan-03 07:00N 27°55' W 082°27'0 0.0
2018-Jan-03 06:30N 27°55' W 082°27'0 0.0
2018-Jan-03 06:00N 27°55' W 082°27'0 0.0
2018-Jan-03 05:30N 27°55' W 082°27'0 0.0
2018-Jan-03 05:01N 27°55' W 082°27'0 0.0
2018-Jan-03 04:30N 27°55' W 082°27'0 0.0
2018-Jan-03 04:01N 27°55' W 082°27'0 0.0
2018-Jan-03 03:30N 27°55' W 082°27'0 0.0
2018-Jan-03 03:00N 27°55' W 082°27'0 0.0
2018-Jan-03 02:30N 27°55' W 082°27'0 0.0
2018-Jan-03 02:00N 27°55' W 082°27'0 0.0
2018-Jan-03 01:31N 27°55' W 082°27'0 0.0
2018-Jan-03 01:00N 27°55' W 082°27'0 0.0
2018-Jan-03 00:30N 27°55' W 082°27'0 0.0
2018-Jan-03 00:00N 27°55' W 082°27'0 0.0
2018-Jan-02 23:30N 27°55' W 082°27'0 0.0
2018-Jan-02 23:00N 27°55' W 082°27'0 0.0
2018-Jan-02 22:30N 27°55' W 082°27'0 0.0
2018-Jan-02 22:01N 27°55' W 082°27'0 0.0
2018-Jan-02 21:30N 27°55' W 082°27'0 0.0
2018-Jan-02 21:00N 27°55' W 082°27'0 0.0
2018-Jan-02 20:31N 27°55' W 082°27'0 0.0
2018-Jan-02 20:00N 27°55' W 082°27'0 0.0
2018-Jan-02 19:30N 27°55' W 082°27'0 0.0
2018-Jan-02 19:00N 27°55' W 082°27'0 0.0
2018-Jan-02 18:30N 27°55' W 082°27'0 0.0
2018-Jan-02 18:00N 27°55' W 082°27'0 0.0
2018-Jan-02 17:31N 27°55' W 082°27'0 0.0
2018-Jan-02 17:00N 27°55' W 082°27'0 0.0
2018-Jan-02 16:30N 27°55' W 082°27'0 0.0
2018-Jan-02 16:00N 27°55' W 082°27'0 0.0
2018-Jan-02 15:30N 27°55' W 082°27'0 0.0
2018-Jan-02 15:00N 27°55' W 082°27'  

Dump ship's entire track history